createdAt,value
2019-02-26T00:09:35.507Z,42
2019-02-26T00:19:39.008Z,41
2019-02-26T00:29:48.667Z,41
2019-02-26T00:39:56.617Z,41
2019-02-26T00:50:00.108Z,42
2019-02-26T01:00:10.426Z,42
2019-02-26T01:10:23.068Z,41
2019-02-26T01:20:32.094Z,41
2019-02-26T01:30:36.489Z,42
2019-02-26T01:40:49.062Z,42
2019-02-26T01:51:03.295Z,42
2019-02-26T02:01:06.864Z,42
2019-02-26T02:11:10.303Z,43
2019-02-26T02:21:13.762Z,42
2019-02-26T02:31:17.232Z,42
2019-02-26T02:41:20.708Z,42
2019-02-26T02:51:31.822Z,41
2019-02-26T03:01:39.844Z,41
2019-02-26T03:11:52.318Z,41
2019-02-26T03:21:58.342Z,40
2019-02-26T03:32:01.828Z,43
2019-02-26T03:42:05.295Z,43
2019-02-26T03:52:08.740Z,43
2019-02-26T04:02:20.007Z,44
2019-02-26T04:12:26.759Z,43
2019-02-26T04:22:30.204Z,44
2019-02-26T04:32:43.122Z,44
2019-02-26T04:42:49.572Z,48
2019-02-26T04:52:58.934Z,47
2019-02-26T05:03:16.970Z,46
2019-02-26T05:13:31.721Z,45
2019-02-26T05:23:37.963Z,48
2019-02-26T05:33:41.387Z,44
2019-02-26T05:43:58.202Z,44
2019-02-26T05:54:14.708Z,45
2019-02-26T06:04:24.324Z,46
2019-02-26T06:14:36.110Z,46
2019-02-26T06:24:42.841Z,47
2019-02-26T06:34:46.274Z,48
2019-02-26T06:44:51.674Z,49
2019-02-26T06:55:02.877Z,54
2019-02-26T07:05:10.602Z,47
2019-02-26T07:15:14.026Z,46
2019-02-26T07:25:18.905Z,48
2019-02-26T07:35:22.319Z,50
2019-02-26T07:45:32.086Z,49
2019-02-26T07:55:42.460Z,49
2019-02-26T08:05:45.934Z,47
2019-02-26T08:15:49.355Z,46
2019-02-26T08:25:59.691Z,44
2019-02-26T08:36:05.681Z,43
2019-02-26T08:46:16.501Z,43
2019-02-26T08:56:30.930Z,44
2019-02-26T09:06:39.155Z,43
2019-02-26T09:16:42.571Z,43
2019-02-26T09:26:52.673Z,44
2019-02-26T09:37:07.945Z,44
2019-02-26T09:47:11.537Z,44
2019-02-26T09:57:24.209Z,44
2019-02-26T10:07:38.855Z,43
2019-02-26T10:17:45.374Z,43
2019-02-26T10:27:48.817Z,42
2019-02-26T10:37:52.245Z,42
2019-02-26T10:48:01.744Z,42
2019-02-26T10:58:13.377Z,42
2019-02-26T11:08:16.846Z,42
2019-02-26T11:18:23.777Z,42
2019-02-26T11:28:37.834Z,42
2019-02-26T11:38:47.308Z,42
2019-02-26T11:48:57.516Z,42
2019-02-26T11:59:01.295Z,43
2019-02-26T12:09:14.140Z,42
2019-02-26T12:19:19.626Z,42
2019-02-26T12:29:28.443Z,42
2019-02-26T12:39:31.936Z,42
2019-02-26T12:49:44.703Z,41
2019-02-26T12:59:48.678Z,41
2019-02-26T13:10:04.133Z,41
2019-02-26T13:20:11.493Z,41
2019-02-26T13:30:14.916Z,42
2019-02-26T13:40:18.397Z,41
2019-02-26T13:50:22.826Z,41
2019-02-26T14:00:27.343Z,41
2019-02-26T14:10:30.801Z,41
2019-02-26T14:20:34.266Z,41
2019-02-26T14:30:37.747Z,42
2019-02-26T14:40:41.178Z,42
2019-02-26T14:50:44.641Z,41
2019-02-26T15:01:00.469Z,41
2019-02-26T15:11:04.040Z,42
2019-02-26T15:21:07.502Z,41
2019-02-26T15:31:10.951Z,42
2019-02-26T15:41:14.420Z,42
2019-02-26T15:51:20.899Z,41
2019-02-26T16:01:24.361Z,42
2019-02-26T16:11:27.828Z,42
2019-02-26T16:21:31.290Z,42
2019-02-26T16:31:35.061Z,42
2019-02-26T16:41:39.230Z,42
2019-02-26T16:51:42.674Z,43
2019-02-26T17:01:46.172Z,44
2019-02-26T17:11:49.653Z,45
2019-02-26T17:21:53.689Z,45
2019-02-26T17:31:57.220Z,46
2019-02-26T17:42:00.681Z,46
2019-02-26T17:52:04.128Z,51
2019-02-26T18:02:07.566Z,48
2019-02-26T18:12:10.993Z,49
2019-02-26T18:22:14.447Z,52
2019-02-26T18:32:17.912Z,54
2019-02-26T18:42:21.335Z,51
2019-02-26T18:52:24.739Z,48
2019-02-26T19:02:28.174Z,49
2019-02-26T19:12:31.613Z,47
2019-02-26T19:22:35.076Z,50
2019-02-26T19:32:38.531Z,50
2019-02-26T19:42:42.887Z,46
2019-02-26T19:52:46.305Z,45
2019-02-26T20:02:49.762Z,45
2019-02-26T20:12:54.425Z,46
2019-02-26T20:22:58.160Z,44
2019-02-26T20:33:05.137Z,43
2019-02-26T20:43:08.928Z,43
2019-02-26T20:53:12.675Z,44
2019-02-26T21:03:16.435Z,44
2019-02-26T21:13:20.209Z,45
2019-02-26T21:23:28.570Z,46
2019-02-26T21:33:32.373Z,51
2019-02-26T21:43:36.197Z,45
2019-02-26T21:53:40.293Z,44
2019-02-26T22:03:44.073Z,45
2019-02-26T22:13:47.830Z,44
2019-02-26T22:23:51.634Z,45
2019-02-26T22:33:55.432Z,44
2019-02-26T22:43:59.195Z,44
2019-02-26T22:54:02.994Z,44
2019-02-26T23:04:06.746Z,47
2019-02-26T23:14:10.594Z,45
2019-02-26T23:24:14.373Z,47
2019-02-26T23:34:22.980Z,46
2019-02-26T23:44:26.749Z,45
2019-02-26T23:54:30.556Z,46
